Time;durP1;ratioP1;P1;durP2;ratioP2;P2;SDS_P1;SDS_P2;PMS_P1;PMS_P2;Temp;Humidity;BMP_temperature;BMP_pressure;BME280_temperature;BME280_humidity;BME280_pressure;Samples;Min_cycle;Max_cycle;Signal;HPM_P1;HPM_P2
2021/03/08 00:10:11;;;;;;;1999.90;999.90;;;4.50;99.90;;;;;;6179560;22;20036;-96
2021/03/08 00:32:11;;;;;;;1999.90;999.90;;;4.60;99.90;;;;;;6030054;23;20054;-96
2021/03/08 00:38:14;;;;;;;1999.90;999.90;;;4.50;99.90;;;;;;6082936;23;20033;-96
2021/03/08 00:40:45;;;;;;;1999.90;999.90;;;4.50;99.90;;;;;;6166683;23;20035;-96
2021/03/08 00:43:18;;;;;;;1999.90;999.90;;;4.60;99.90;;;;;;6251066;23;20031;-96
2021/03/08 00:46:06;;;;;;;1999.90;999.90;;;4.60;99.90;;;;;;6248940;23;20437;-95
2021/03/08 00:48:54;;;;;;;1999.90;999.90;;;4.50;99.90;;;;;;6249675;23;20020;-95
2021/03/08 00:59:32;;;;;;;1999.90;999.90;;;4.60;99.90;;;;;;6082472;23;20022;-96
2021/03/08 01:03:11;;;;;;;1999.90;999.90;;;4.60;99.90;;;;;;6077992;23;20131;-96
2021/03/08 01:06:02;;;;;;;1999.90;999.90;;;4.60;99.90;;;;;;5995304;23;20023;-96
2021/03/08 01:12:40;;;;;;;1999.90;999.90;;;4.50;99.90;;;;;;6177014;23;20079;-95
2021/03/08 01:18:59;;;;;;;1999.90;999.90;;;4.50;99.90;;;;;;6196904;23;20040;-96
2021/03/08 01:25:44;;;;;;;1999.90;999.90;;;4.50;99.90;;;;;;6194336;23;20036;-96
2021/03/08 01:32:38;;;;;;;1999.90;999.90;;;4.60;99.90;;;;;;6141493;23;20058;-96
2021/03/08 01:39:34;;;;;;;1999.90;999.90;;;4.60;99.90;;;;;;6143626;23;20046;-96
2021/03/08 01:46:18;;;;;;;1999.90;999.90;;;4.60;99.90;;;;;;5974766;24;20056;-96
2021/03/08 01:49:06;;;;;;;1999.90;999.90;;;4.60;99.90;;;;;;5965286;24;20032;-96
2021/03/08 01:54:49;;;;;;;1999.90;999.90;;;4.60;99.90;;;;;;5969914;24;20028;-95
2021/03/08 01:57:17;;;;;;;1999.90;999.90;;;4.60;99.90;;;;;;5957810;24;20037;-95
2021/03/08 02:10:08;;;;;;;1999.90;999.90;;;4.60;99.90;;;;;;6087283;23;20071;-96
2021/03/08 02:31:18;;;;;;;1999.90;999.90;;;4.60;99.90;;;;;;6147841;23;20041;-96
2021/03/08 02:34:15;;;;;;;1999.90;999.90;;;4.70;99.90;;;;;;6169521;23;20024;-96
2021/03/08 02:37:17;;;;;;;1999.90;999.90;;;4.70;99.90;;;;;;6236653;23;20040;-96
2021/03/08 03:17:56;;;;;;;1999.90;999.90;;;4.80;99.90;;;;;;6199400;23;20039;-96
2021/03/08 03:23:26;;;;;;;1999.90;999.90;;;4.80;99.90;;;;;;6209392;23;20013;-96
2021/03/08 03:29:24;;;;;;;1999.90;999.90;;;4.80;99.90;;;;;;6207935;23;20025;-96
2021/03/08 03:32:14;;;;;;;1999.90;999.90;;;4.70;99.90;;;;;;6183489;23;20060;-96
2021/03/08 03:34:51;;;;;;;1999.90;999.90;;;4.80;99.90;;;;;;6197835;23;20449;-96
2021/03/08 03:41:51;;;;;;;1999.90;999.90;;;4.80;99.90;;;;;;6124852;23;20039;-96
2021/03/08 03:47:43;;;;;;;1999.90;999.90;;;4.70;99.90;;;;;;6234127;22;20019;-96
2021/03/08 03:50:22;;;;;;;1999.90;999.90;;;4.70;99.90;;;;;;6232087;23;20051;-96
2021/03/08 03:52:51;;;;;;;1999.90;999.90;;;4.70;99.90;;;;;;6231170;23;20044;-96
2021/03/08 03:55:27;;;;;;;1999.90;999.90;;;4.70;99.90;;;;;;6227797;23;20025;-96
2021/03/08 03:58:06;;;;;;;1999.90;999.90;;;4.70;99.90;;;;;;6229011;23;20028;-96
2021/03/08 04:00:40;;;;;;;1999.90;999.90;;;4.70;99.90;;;;;;6227461;23;20025;-96
2021/03/08 04:03:10;;;;;;;1999.90;999.90;;;4.70;99.90;;;;;;6227773;23;20040;-96
2021/03/08 04:05:44;;;;;;;1999.90;999.90;;;4.80;99.90;;;;;;6227597;23;20024;-96
2021/03/08 04:08:16;;;;;;;1999.90;999.90;;;4.80;99.90;;;;;;6226367;23;20024;-96
2021/03/08 04:10:46;;;;;;;1999.90;999.90;;;4.80;99.90;;;;;;6225237;23;20076;-96
2021/03/08 04:13:17;;;;;;;1999.90;999.90;;;4.80;99.90;;;;;;6226735;23;20036;-96
2021/03/08 04:15:45;;;;;;;1999.90;999.90;;;4.80;99.90;;;;;;6226918;23;20077;-96
2021/03/08 04:18:14;;;;;;;1999.90;999.90;;;4.80;99.90;;;;;;6230950;23;20028;-96
2021/03/08 04:20:44;;;;;;;1999.90;999.90;;;4.80;99.90;;;;;;6231211;23;20025;-96
2021/03/08 04:23:18;;;;;;;1999.90;999.90;;;4.80;99.90;;;;;;6228908;23;20025;-96
2021/03/08 04:25:52;;;;;;;1999.90;999.90;;;4.80;99.90;;;;;;6228910;23;20017;-96
2021/03/08 04:28:24;;;;;;;1999.90;999.90;;;4.80;99.90;;;;;;6235298;23;20021;-96
2021/03/08 04:31:00;;;;;;;1999.90;999.90;;;4.80;99.90;;;;;;6236387;23;20024;-96
2021/03/08 04:33:40;;;;;;;1999.90;999.90;;;4.90;99.90;;;;;;6211696;23;20055;-95
2021/03/08 04:36:12;;;;;;;1999.90;999.90;;;4.90;99.90;;;;;;6208430;23;20021;-96
2021/03/08 04:38:47;;;;;;;1999.90;999.90;;;4.90;99.90;;;;;;6233064;23;20024;-96
2021/03/08 04:41:19;;;;;;;1999.90;999.90;;;4.90;99.90;;;;;;6235923;23;20020;-96
2021/03/08 04:43:54;;;;;;;1999.90;999.90;;;4.90;99.90;;;;;;6236203;23;20047;-96
2021/03/08 04:46:24;;;;;;;1999.90;999.90;;;4.80;99.90;;;;;;6236641;23;20016;-96
2021/03/08 04:48:58;;;;;;;1999.90;999.90;;;4.90;99.90;;;;;;6265098;23;20031;-96
2021/03/08 04:51:32;;;;;;;1999.90;999.90;;;4.90;99.90;;;;;;6238736;23;20255;-96
2021/03/08 04:57:11;;;;;;;1999.90;999.90;;;4.90;99.90;;;;;;6255481;23;20027;-96
2021/03/08 04:59:44;;;;;;;1999.90;999.90;;;5.00;99.90;;;;;;6259562;23;20333;-96
2021/03/08 05:02:24;;;;;;;1999.90;999.90;;;5.00;99.90;;;;;;6260771;23;20051;-96
2021/03/08 05:05:05;;;;;;;1999.90;999.90;;;4.90;99.90;;;;;;6260598;23;20024;-96
2021/03/08 05:08:07;;;;;;;1999.90;999.90;;;5.00;99.90;;;;;;6259736;23;20051;-96
2021/03/08 05:10:53;;;;;;;1999.90;999.90;;;5.00;99.90;;;;;;6260899;23;20024;-96
2021/03/08 05:13:51;;;;;;;1999.90;999.90;;;5.00;99.90;;;;;;6258251;23;20024;-95
2021/03/08 05:16:28;;;;;;;1999.90;999.90;;;5.00;99.90;;;;;;6254477;23;20028;-95
2021/03/08 05:19:01;;;;;;;1999.90;999.90;;;5.00;99.90;;;;;;6256128;23;20086;-95
2021/03/08 05:21:36;;;;;;;1999.90;999.90;;;5.00;99.90;;;;;;6257226;23;20451;-96
2021/03/08 05:30:18;;;;;;;1999.90;999.90;;;5.00;99.90;;;;;;6256791;23;20059;-96
2021/03/08 05:33:17;;;;;;;1999.90;999.90;;;5.00;99.90;;;;;;6259682;23;20023;-96
2021/03/08 05:36:07;;;;;;;1999.90;999.90;;;5.00;99.90;;;;;;6256699;23;20515;-95
2021/03/08 05:39:07;;;;;;;1999.90;999.90;;;5.00;99.90;;;;;;6259470;23;20074;-96
2021/03/08 05:41:56;;;;;;;1999.90;999.90;;;5.00;99.90;;;;;;6262825;23;20020;-96
2021/03/08 05:44:43;;;;;;;1999.90;999.90;;;5.00;99.90;;;;;;6263473;23;20030;-96
2021/03/08 05:48:00;;;;;;;1999.90;999.90;;;5.10;99.90;;;;;;6258313;23;20067;-96
2021/03/08 05:51:51;;;;;;;;;;;;;;;;;;;;;
2021/03/08 06:02:32;;;;;;;1999.90;999.90;;;5.00;99.90;;;;;;6106719;23;20483;-96
2021/03/08 06:05:54;;;;;;;1999.90;999.90;;;5.10;99.90;;;;;;6058183;23;20105;-96
2021/03/08 06:09:05;;;;;;;1999.90;999.90;;;5.10;99.90;;;;;;6096557;23;20090;-96
2021/03/08 06:11:38;;;;;;;1999.90;999.90;;;5.10;99.90;;;;;;6094828;23;20033;-96
2021/03/08 06:14:32;;;;;;;1999.90;999.90;;;5.10;99.90;;;;;;6100923;23;20079;-96
2021/03/08 06:17:08;;;;;;;1999.90;999.90;;;5.10;99.90;;;;;;6100258;23;20058;-96
2021/03/08 06:19:52;;;;;;;1999.90;999.90;;;5.10;99.90;;;;;;6101075;23;20086;-95
2021/03/08 06:22:34;;;;;;;1999.90;999.90;;;5.10;99.90;;;;;;6104313;23;20411;-96
2021/03/08 06:25:14;;;;;;;1999.90;999.90;;;5.10;99.90;;;;;;6102363;23;20033;-95
2021/03/08 06:27:50;;;;;;;1999.90;999.90;;;5.10;99.90;;;;;;6100113;23;20383;-96
2021/03/08 06:31:04;;;;;;;1999.90;999.90;;;5.10;99.90;;;;;;6098881;23;20027;-95
2021/03/08 06:33:54;;;;;;;1999.90;999.90;;;5.10;99.90;;;;;;6098599;23;20027;-95
2021/03/08 06:36:22;;;;;;;1999.90;999.90;;;5.20;99.90;;;;;;6099667;23;20018;-95
2021/03/08 06:38:56;;;;;;;1999.90;999.90;;;5.20;99.90;;;;;;6182329;23;20020;-95
2021/03/08 06:41:32;;;;;;;1999.90;999.90;;;5.20;99.90;;;;;;6250473;23;20024;-96
2021/03/08 06:44:07;;;;;;;1999.90;999.90;;;5.20;99.90;;;;;;6251753;23;20035;-96
2021/03/08 06:46:37;;;;;;;1999.90;999.90;;;5.20;99.90;;;;;;6247194;23;20025;-96
2021/03/08 06:49:07;;;;;;;1999.90;999.90;;;5.20;99.90;;;;;;6249680;23;20027;-95
2021/03/08 06:51:34;;;;;;;1999.90;999.90;;;5.20;99.90;;;;;;6251108;23;20099;-95
2021/03/08 06:54:36;;;;;;;1999.90;999.90;;;5.20;99.90;;;;;;6251502;23;20031;-96
2021/03/08 06:57:22;;;;;;;1999.90;999.90;;;5.20;99.90;;;;;;6246755;23;20024;-96
2021/03/08 06:59:52;;;;;;;1999.90;999.90;;;5.20;99.90;;;;;;6252137;23;20024;-95
2021/03/08 07:02:21;;;;;;;1999.90;999.90;;;5.20;99.90;;;;;;6256231;23;20051;-95
2021/03/08 07:04:50;;;;;;;1999.90;999.90;;;5.20;99.90;;;;;;6260242;23;20024;-96
2021/03/08 07:07:21;;;;;;;1999.90;999.90;;;5.20;99.90;;;;;;6262189;23;20016;-96
2021/03/08 07:09:57;;;;;;;1999.90;999.90;;;5.20;99.90;;;;;;6251155;23;20031;-96
2021/03/08 07:12:25;;;;;;;1999.90;999.90;;;5.30;99.90;;;;;;6250268;23;20059;-96
2021/03/08 07:15:13;;;;;;;1999.90;999.90;;;5.30;99.90;;;;;;6251327;23;20082;-96
2021/03/08 07:17:52;;;;;;;1999.90;999.90;;;5.30;99.90;;;;;;6241542;23;20458;-96
2021/03/08 07:21:04;;;;;;;1999.90;999.90;;;5.30;99.90;;;;;;6236519;23;20020;-96
2021/03/08 07:23:42;;;;;;;1999.90;999.90;;;5.40;99.90;;;;;;6251131;23;20104;-96
2021/03/08 07:26:13;;;;;;;1999.90;999.90;;;5.40;99.90;;;;;;6250933;23;20016;-95
2021/03/08 07:28:50;;;;;;;1999.90;999.90;;;5.40;99.90;;;;;;6250522;23;20020;-96
2021/03/08 07:32:08;;;;;;;1999.90;999.90;;;5.50;99.90;;;;;;6250084;23;20024;-96
2021/03/08 07:34:47;;;;;;;1999.90;999.90;;;5.50;99.90;;;;;;6258382;23;20024;-96
2021/03/08 07:37:17;;;;;;;1999.90;999.90;;;5.50;99.90;;;;;;6249549;23;20362;-96
2021/03/08 07:46:51;;;;;;;1999.90;999.90;;;5.60;99.90;;;;;;6232141;22;20043;-94
2021/03/08 07:49:32;;;;;;;1999.90;999.90;;;5.60;99.90;;;;;;6249869;23;20024;-94
2021/03/08 07:52:06;;;;;;;1999.90;999.90;;;5.60;99.90;;;;;;6249570;23;20046;-92
2021/03/08 07:55:16;;;;;;;1999.90;999.90;;;5.70;99.90;;;;;;6249795;23;20108;-94
2021/03/08 07:57:56;;;;;;;1999.90;999.90;;;5.70;99.90;;;;;;6249399;23;20023;-94
2021/03/08 08:00:54;;;;;;;1999.90;999.90;;;5.80;99.90;;;;;;6249131;23;20027;-94
2021/03/08 08:03:32;;;;;;;1999.90;999.90;;;5.80;99.90;;;;;;6243132;23;20020;-94
2021/03/08 08:06:33;;;;;;;1999.90;999.90;;;5.80;99.90;;;;;;6234258;23;20444;-94
2021/03/08 08:09:02;;;;;;;1999.90;999.90;;;5.90;99.90;;;;;;6250133;23;20099;-94
2021/03/08 08:11:43;;;;;;;1999.90;999.90;;;5.90;99.90;;;;;;6249170;23;20131;-93
2021/03/08 08:14:19;;;;;;;1999.90;999.90;;;5.90;99.90;;;;;;6249125;23;20020;-94
2021/03/08 08:17:36;;;;;;;1999.90;999.90;;;6.00;99.90;;;;;;6248306;23;20023;-94
2021/03/08 08:20:38;;;;;;;1999.90;999.90;;;5.90;99.90;;;;;;6248833;23;20327;-95
2021/03/08 08:23:24;;;;;;;1999.90;999.90;;;5.90;99.90;;;;;;6248187;23;20020;-93
2021/03/08 08:26:26;;;;;;;1999.90;999.90;;;6.00;99.90;;;;;;6247933;23;20042;-94
2021/03/08 08:29:00;;;;;;;1999.90;999.90;;;6.00;99.90;;;;;;6245534;23;20411;-93
2021/03/08 08:32:08;;;;;;;1999.90;999.90;;;6.00;99.90;;;;;;6248058;23;20031;-94
2021/03/08 08:38:25;;;;;;;1999.90;999.90;;;6.10;99.90;;;;;;6248063;23;20016;-94
2021/03/08 08:41:38;;;;;;;1999.90;999.90;;;6.20;99.90;;;;;;6248634;23;20024;-94
2021/03/08 08:44:31;;;;;;;1999.90;999.90;;;6.20;99.90;;;;;;6162536;23;20021;-93
2021/03/08 08:55:27;;;;;;;1999.90;999.90;;;6.30;99.90;;;;;;6013453;23;20101;-94
2021/03/08 08:58:38;;;;;;;1999.90;999.90;;;6.40;99.90;;;;;;6071463;23;20026;-94
2021/03/08 09:01:44;;;;;;;1999.90;999.90;;;6.40;99.90;;;;;;6101694;23;20513;-94
2021/03/08 09:04:52;;;;;;;1999.90;999.90;;;6.40;99.90;;;;;;6102948;23;20097;-94
2021/03/08 09:07:54;;;;;;;1999.90;999.90;;;6.50;99.90;;;;;;6121265;23;20015;-94
2021/03/08 09:10:50;;;;;;;1999.90;999.90;;;6.50;99.90;;;;;;6273006;22;20010;-94
2021/03/08 09:13:41;;;;;;;1999.90;999.90;;;6.50;99.90;;;;;;6272523;22;20071;-94
2021/03/08 09:16:58;;;;;;;1999.90;999.90;;;6.60;99.90;;;;;;6254086;23;20323;-94
2021/03/08 09:23:15;;;;;;;1999.90;999.90;;;6.60;99.90;;;;;;6252086;23;20039;-94
2021/03/08 09:26:38;;;;;;;1999.90;999.90;;;6.70;99.90;;;;;;6135864;23;20025;-95
2021/03/08 09:33:06;;;;;;;1999.90;999.90;;;6.90;99.90;;;;;;6142525;23;20109;-95
2021/03/08 09:35:59;;;;;;;1999.90;999.90;;;7.00;99.90;;;;;;6142934;23;20326;-94
2021/03/08 09:38:44;;;;;;;1999.90;999.90;;;7.10;99.90;;;;;;6133409;23;20024;-94
2021/03/08 09:41:33;;;;;;;1999.90;999.90;;;7.10;99.90;;;;;;6143620;23;20024;-94
2021/03/08 09:44:27;;;;;;;1999.90;999.90;;;7.20;99.90;;;;;;6249462;23;20042;-94
2021/03/08 09:47:08;;;;;;;1999.90;999.90;;;7.20;99.90;;;;;;6247608;23;20043;-95
2021/03/08 09:49:50;;;;;;;1999.90;999.90;;;7.20;99.90;;;;;;6248163;23;20450;-94
2021/03/08 09:52:47;;;;;;;1999.90;999.90;;;7.20;99.90;;;;;;6246609;23;20024;-95
2021/03/08 09:55:47;;;;;;;1999.90;999.90;;;7.20;99.90;;;;;;6246923;23;20026;-95
2021/03/08 09:59:01;;;;;;;1999.90;999.90;;;7.30;99.90;;;;;;6247866;23;20041;-94
2021/03/08 10:01:44;;;;;;;1999.90;999.90;;;7.30;99.90;;;;;;6247453;23;20081;-94
2021/03/08 10:04:21;;;;;;;1999.90;999.90;;;7.40;99.90;;;;;;6247183;23;20447;-95
2021/03/08 10:07:41;;;;;;;1999.90;999.90;;;7.50;99.90;;;;;;6248491;23;20406;-96
2021/03/08 10:10:40;;;;;;;1999.90;999.90;;;7.60;99.90;;;;;;6251277;23;20054;-95
2021/03/08 10:13:08;;;;;;;1999.90;999.90;;;7.80;99.90;;;;;;6248740;23;20074;-94
2021/03/08 10:16:28;;;;;;;;;;;;;;;;;;;;;
2021/03/08 10:19:38;;;;;;;1999.90;999.90;;;7.90;99.90;;;;;;6246960;23;20273;-95
2021/03/08 10:22:47;;;;;;;1999.90;999.90;;;7.90;99.90;;;;;;6247919;23;20028;-94
2021/03/08 10:25:36;;;;;;;1999.90;999.90;;;8.00;99.90;;;;;;6247874;23;20051;-93
2021/03/08 10:28:14;;;;;;;1999.90;999.90;;;8.10;99.90;;;;;;6247953;23;20431;-95
2021/03/08 10:30:53;;;;;;;1999.90;999.90;;;8.10;99.90;;;;;;6247700;23;20063;-93
2021/03/08 10:33:47;;;;;;;1999.90;999.90;;;8.10;99.90;;;;;;6248628;23;20024;-94
2021/03/08 10:36:29;;;;;;;1999.90;999.90;;;8.30;99.90;;;;;;6248877;23;20040;-96
2021/03/08 10:39:34;;;;;;;1999.90;999.90;;;8.50;99.90;;;;;;6254943;23;20030;-96
2021/03/08 10:42:43;;;;;;;1999.90;999.90;;;8.60;99.90;;;;;;6255713;23;20021;-96
2021/03/08 10:53:23;;;;;;;1999.90;999.90;;;9.00;99.90;;;;;;6218641;23;20400;-95
2021/03/08 10:55:53;;;;;;;1999.90;999.90;;;9.10;99.90;;;;;;6220001;23;20020;-96
2021/03/08 11:13:48;;;;;;;1999.90;999.90;;;9.40;99.80;;;;;;6043153;23;20537;-96
2021/03/08 11:27:51;;;;;;;1999.90;999.90;;;9.10;98.40;;;;;;6041583;23;20536;-96
2021/03/08 11:30:21;;;;;;;1999.90;999.90;;;9.10;99.00;;;;;;6042227;23;20027;-96
2021/03/08 11:36:47;;;;;;;;;;;9.30;99.10;;;;;;5905250;24;20060;-96
2021/03/08 11:39:30;;;;;;;1999.90;999.90;;;9.50;98.60;;;;;;5879376;24;19947;-96
2021/03/08 11:41:59;;;;;;;1999.90;999.90;;;9.40;98.30;;;;;;5991706;24;20016;-96
2021/03/08 12:30:39;;;;;;;;;;;;;;;;;;;;;
2021/03/08 12:52:27;;;;;;;1999.90;999.90;;;9.70;96.10;;;;;;6085733;23;20047;-96
2021/03/08 12:55:13;;;;;;;1999.90;999.90;;;9.60;96.40;;;;;;6084671;23;20027;-96
2021/03/08 13:38:25;;;;;;;1999.90;999.90;;;10.30;94.90;;;;;;5941868;24;20056;-96
2021/03/08 14:23:00;;;;;;;1999.90;999.90;;;10.00;92.30;;;;;;5867674;24;20074;-96
2021/03/08 14:32:42;;;;;;;1999.90;999.90;;;10.00;91.60;;;;;;6077385;23;20013;-94
2021/03/08 14:43:53;;;;;;;1999.90;999.90;;;9.80;91.20;;;;;;5921634;24;20043;-93
2021/03/08 14:58:07;;;;;;;;;;;;;;;;;;;;;
2021/03/08 15:00:53;;;;;;;1999.90;999.90;;;9.60;91.70;;;;;;5899668;24;20029;-96
2021/03/08 15:03:34;;;;;;;1999.90;999.90;;;9.60;91.60;;;;;;5905633;23;20029;-96
2021/03/08 15:06:20;;;;;;;1999.90;999.90;;;9.50;91.50;;;;;;5982079;23;20034;-96
2021/03/08 15:09:09;;;;;;;1999.90;999.90;;;9.50;91.40;;;;;;6074442;23;20078;-96
2021/03/08 15:12:20;;;;;;;;;;;;;;;;;;;;;
2021/03/08 15:15:24;;;;;;;1999.90;999.90;;;9.50;91.70;;;;;;6111515;23;20106;-96
2021/03/08 15:19:03;;;;;;;1999.90;999.90;;;9.50;90.90;;;;;;6212588;23;20094;-96
2021/03/08 15:21:43;;;;;;;1999.90;999.90;;;9.50;91.10;;;;;;6238911;23;20432;-95
2021/03/08 15:24:27;;;;;;;;;;;;;;;;;;;;;
2021/03/08 15:31:11;;;;;;;1999.90;999.90;;;9.20;91.10;;;;;;6148071;23;20014;-96
2021/03/08 15:33:40;;;;;;;1999.90;999.90;;;9.10;91.30;;;;;;6249998;23;20082;-96
2021/03/08 15:36:17;;;;;;;1999.90;999.90;;;9.10;91.10;;;;;;6251097;23;20024;-96
2021/03/08 15:39:14;;;;;;;1999.90;999.90;;;9.10;91.40;;;;;;6254939;23;20027;-96
2021/03/08 15:42:28;;;;;;;1999.90;999.90;;;9.10;92.10;;;;;;6253556;23;20425;-96
2021/03/08 15:44:56;;;;;;;1999.90;999.90;;;9.10;91.50;;;;;;6258894;23;20024;-96
2021/03/08 15:48:07;;;;;;;1999.90;999.90;;;9.00;91.90;;;;;;6255517;23;20024;-96
2021/03/08 15:54:48;;;;;;;1999.90;999.90;;;8.90;92.20;;;;;;6159649;23;20029;-95
2021/03/08 15:57:46;;;;;;;1999.90;999.90;;;8.90;92.50;;;;;;6156046;23;20024;-96
2021/03/08 16:08:21;;;;;;;1999.90;999.90;;;8.60;92.70;;;;;;6070528;23;20094;-95
2021/03/08 16:16:06;;;;;;;1999.90;999.90;;;8.50;92.80;;;;;;6039803;23;20021;-96
2021/03/08 16:29:07;;;;;;;1999.90;999.90;;;8.30;95.30;;;;;;5981710;23;20116;-93
2021/03/08 16:55:11;;;;;;;;;;;;;;;;;;;;;
2021/03/08 16:58:19;;;;;;;1999.90;999.90;;;7.60;97.00;;;;;;5969915;23;20023;-92
2021/03/08 17:01:30;;;;;;;1999.90;999.90;;;7.50;98.80;;;;;;6119894;23;20398;-94
2021/03/08 17:04:04;;;;;;;1999.90;999.90;;;7.40;99.70;;;;;;6089650;23;20030;-94
2021/03/08 17:06:40;;;;;;;1999.90;999.90;;;7.30;99.90;;;;;;6128436;23;20025;-93
2021/03/08 17:09:07;;;;;;;1999.90;999.90;;;7.20;99.90;;;;;;6126224;23;20468;-95
2021/03/08 17:18:47;;;;;;;1999.90;999.90;;;6.90;99.90;;;;;;6242697;23;20055;-96
2021/03/08 17:29:53;;;;;;;1999.90;999.90;;;6.80;99.90;;;;;;6172951;23;20024;-95
2021/03/08 17:35:35;;;;;;;1999.90;999.90;;;6.70;99.90;;;;;;6235857;23;20043;-93
2021/03/08 17:38:46;;;;;;;1999.90;999.90;;;6.60;99.90;;;;;;6248612;23;20035;-93
2021/03/08 17:41:29;;;;;;;1999.90;999.90;;;6.50;99.90;;;;;;6227695;23;20076;-94
2021/03/08 17:44:12;;;;;;;1999.90;999.90;;;6.40;99.90;;;;;;6247462;23;20020;-93
2021/03/08 17:47:02;;;;;;;1999.90;999.90;;;6.30;99.90;;;;;;6237008;23;20020;-93
2021/03/08 17:49:50;;;;;;;1999.90;999.90;;;6.30;99.90;;;;;;6235274;23;20024;-94
2021/03/08 17:52:20;;;;;;;;;;;6.20;99.90;;;;;;6247982;23;20024;-94
2021/03/08 17:54:47;;;;;;;1999.90;999.90;;;6.20;99.90;;;;;;6248680;23;20307;-94
2021/03/08 17:57:46;;;;;;;1999.90;999.90;;;6.10;99.90;;;;;;6247627;23;20020;-94
2021/03/08 18:00:27;;;;;;;1999.90;999.90;;;6.10;99.90;;;;;;6247736;23;20028;-93
2021/03/08 18:03:05;;;;;;;1999.90;999.90;;;6.10;99.90;;;;;;6247587;23;20043;-94
2021/03/08 18:05:42;;;;;;;1999.90;999.90;;;6.00;99.90;;;;;;6248661;23;20047;-95
2021/03/08 18:08:15;;;;;;;1999.90;999.90;;;6.00;99.90;;;;;;6248844;23;20016;-93
2021/03/08 18:10:45;;;;;;;1999.90;999.90;;;6.00;99.90;;;;;;6247464;23;20383;-93
2021/03/08 18:13:22;;;;;;;1999.90;999.90;;;6.00;99.90;;;;;;6244080;23;20024;-94
2021/03/08 18:15:49;;;;;;;1999.90;999.90;;;6.00;99.90;;;;;;6249255;23;20024;-93
2021/03/08 18:18:26;;;;;;;1999.90;999.90;;;6.00;99.90;;;;;;6250498;23;20024;-93
2021/03/08 18:20:58;;;;;;;1999.90;999.90;;;6.10;99.90;;;;;;6250380;23;20020;-93
2021/03/08 18:23:48;;;;;;;1999.90;999.90;;;6.10;99.90;;;;;;6249844;23;20035;-93
2021/03/08 18:26:16;;;;;;;1999.90;999.90;;;6.00;99.90;;;;;;6250330;23;20047;-94
2021/03/08 18:28:43;;;;;;;1999.90;999.90;;;6.00;99.90;;;;;;6249317;23;20016;-93
2021/03/08 18:31:11;;;;;;;1999.90;999.90;;;5.90;99.90;;;;;;6250288;23;20077;-94
2021/03/08 18:33:39;;;;;;;1999.90;999.90;;;5.90;99.90;;;;;;6249589;23;20024;-94
2021/03/08 18:36:10;;;;;;;1999.90;999.90;;;5.90;99.90;;;;;;6250338;23;20024;-93
2021/03/08 18:38:42;;;;;;;1999.90;999.90;;;5.90;99.90;;;;;;6250705;23;20024;-94
2021/03/08 18:41:14;;;;;;;1999.90;999.90;;;5.90;99.90;;;;;;6250979;23;20098;-93
2021/03/08 18:44:28;;;;;;;1999.90;999.90;;;6.00;99.90;;;;;;6250716;23;20032;-93
2021/03/08 18:47:01;;;;;;;1999.90;999.90;;;6.00;99.90;;;;;;6243440;23;20067;-94
2021/03/08 18:49:29;;;;;;;1999.90;999.90;;;6.10;99.90;;;;;;6250566;23;20031;-93
2021/03/08 18:52:05;;;;;;;1999.90;999.90;;;6.10;99.90;;;;;;6250054;23;20050;-94
2021/03/08 18:54:40;;;;;;;1999.90;999.90;;;6.00;99.90;;;;;;6249129;23;20036;-94
2021/03/08 18:57:11;;;;;;;1999.90;999.90;;;6.00;99.90;;;;;;6249374;23;20074;-94
2021/03/08 19:00:03;;;;;;;1999.90;999.90;;;6.00;99.90;;;;;;6239403;23;20459;-95
2021/03/08 19:02:54;;;;;;;1999.90;999.90;;;6.00;99.90;;;;;;6249340;23;20024;-94
2021/03/08 19:05:26;;;;;;;1999.90;999.90;;;6.00;99.90;;;;;;6249517;23;20388;-93
2021/03/08 19:07:54;;;;;;;1999.90;999.90;;;5.90;99.90;;;;;;6249609;23;20443;-95
2021/03/08 19:11:09;;;;;;;1999.90;999.90;;;5.90;99.90;;;;;;6249388;23;20024;-94
2021/03/08 19:13:59;;;;;;;1999.90;999.90;;;6.00;99.90;;;;;;6241709;23;20039;-95
2021/03/08 19:16:26;;;;;;;1999.90;999.90;;;5.90;99.90;;;;;;6249556;23;20371;-96
2021/03/08 19:19:04;;;;;;;1999.90;999.90;;;5.80;99.90;;;;;;6249624;23;20091;-95
2021/03/08 19:21:42;;;;;;;1999.90;999.90;;;5.80;99.90;;;;;;6249890;23;20026;-95
2021/03/08 19:24:12;;;;;;;1999.90;999.90;;;5.80;99.90;;;;;;6250446;23;20095;-94
2021/03/08 19:26:45;;;;;;;1999.90;999.90;;;5.80;99.90;;;;;;6249048;23;20367;-95
2021/03/08 19:29:36;;;;;;;1999.90;999.90;;;5.80;99.90;;;;;;6248341;23;20026;-96
2021/03/08 19:32:10;;;;;;;1999.90;999.90;;;5.70;99.90;;;;;;6249447;23;20035;-96
2021/03/08 19:34:42;;;;;;;1999.90;999.90;;;5.70;99.90;;;;;;6249033;23;20043;-95
2021/03/08 19:37:15;;;;;;;1999.90;999.90;;;5.70;99.90;;;;;;6249004;23;20451;-96
2021/03/08 19:39:42;;;;;;;1999.90;999.90;;;5.70;99.90;;;;;;6249861;23;20110;-95
2021/03/08 19:42:13;;;;;;;1999.90;999.90;;;5.60;99.90;;;;;;6249778;23;20024;-95
2021/03/08 19:44:47;;;;;;;1999.90;999.90;;;5.60;99.90;;;;;;6249877;23;20051;-95
2021/03/08 19:47:32;;;;;;;1999.90;999.90;;;5.60;99.90;;;;;;6248529;23;20027;-95
2021/03/08 19:50:07;;;;;;;1999.90;999.90;;;5.50;99.90;;;;;;6248464;23;20499;-95
2021/03/08 19:52:38;;;;;;;1999.90;999.90;;;5.50;99.90;;;;;;6248793;23;20027;-96
2021/03/08 19:55:08;;;;;;;1999.90;999.90;;;5.50;99.90;;;;;;6249880;23;20020;-95
2021/03/08 19:57:37;;;;;;;1999.90;999.90;;;5.50;99.90;;;;;;6237274;23;20024;-95
2021/03/08 20:00:12;;;;;;;1999.90;999.90;;;5.50;99.90;;;;;;6248810;23;20028;-96
2021/03/08 20:02:41;;;;;;;1999.90;999.90;;;5.50;99.90;;;;;;6238576;23;20031;-94
2021/03/08 20:05:11;;;;;;;1999.90;999.90;;;5.50;99.90;;;;;;6249429;23;20024;-95
2021/03/08 20:07:41;;;;;;;1999.90;999.90;;;5.50;99.90;;;;;;6248866;23;20054;-95
2021/03/08 20:10:17;;;;;;;1999.90;999.90;;;5.50;99.90;;;;;;6249622;23;20024;-96
2021/03/08 20:12:49;;;;;;;1999.90;999.90;;;5.50;99.90;;;;;;6250402;22;20570;-96
2021/03/08 20:15:18;;;;;;;1999.90;999.90;;;5.50;99.90;;;;;;6252267;23;20042;-95
2021/03/08 20:17:54;;;;;;;1999.90;999.90;;;5.50;99.90;;;;;;6254768;23;20040;-95
2021/03/08 20:20:22;;;;;;;1999.90;999.90;;;5.50;99.90;;;;;;6253691;23;20024;-96
2021/03/08 20:22:50;;;;;;;1999.90;999.90;;;5.50;99.90;;;;;;6254048;23;20020;-96
2021/03/08 20:25:23;;;;;;;1999.90;999.90;;;5.60;99.90;;;;;;6252539;23;20347;-95
2021/03/08 20:27:57;;;;;;;1999.90;999.90;;;5.60;99.90;;;;;;6251369;23;20617;-95
2021/03/08 20:30:33;;;;;;;1999.90;999.90;;;5.50;99.90;;;;;;6250332;23;20024;-95
2021/03/08 20:36:33;;;;;;;1999.90;999.90;;;5.40;99.90;;;;;;6109685;23;20102;-95
2021/03/08 20:39:28;;;;;;;1999.90;999.90;;;5.40;99.90;;;;;;6156661;23;20044;-95
2021/03/08 20:42:00;;;;;;;1999.90;999.90;;;5.40;99.90;;;;;;6157759;23;20032;-96
2021/03/08 20:44:32;;;;;;;1999.90;999.90;;;5.40;99.90;;;;;;6156287;23;20434;-96
2021/03/08 20:47:00;;;;;;;1999.90;999.90;;;5.40;99.90;;;;;;6156432;23;20442;-96
2021/03/08 20:49:37;;;;;;;1999.90;999.90;;;5.40;99.90;;;;;;6156531;23;20045;-96
2021/03/08 20:55:05;;;;;;;1999.90;999.90;;;5.40;99.90;;;;;;6157923;23;20037;-96
2021/03/08 20:57:38;;;;;;;1999.90;999.90;;;5.40;99.90;;;;;;6157579;23;20022;-96
2021/03/08 21:00:14;;;;;;;1999.90;999.90;;;5.50;99.90;;;;;;6207218;23;20027;-95
2021/03/08 21:02:44;;;;;;;1999.90;999.90;;;5.40;99.90;;;;;;6239527;23;20050;-95
2021/03/08 21:05:15;;;;;;;1999.90;999.90;;;5.30;99.90;;;;;;6250358;23;20542;-95
2021/03/08 21:07:58;;;;;;;1999.90;999.90;;;5.40;99.90;;;;;;6251739;23;20026;-96
2021/03/08 21:10:27;;;;;;;1999.90;999.90;;;5.30;99.90;;;;;;6253534;23;20020;-96
2021/03/08 21:12:58;;;;;;;1999.90;999.90;;;5.30;99.90;;;;;;6252125;23;20027;-95
2021/03/08 21:15:30;;;;;;;1999.90;999.90;;;5.30;99.90;;;;;;6251575;23;20036;-95
2021/03/08 21:17:58;;;;;;;1999.90;999.90;;;5.30;99.90;;;;;;6249354;23;20078;-96
2021/03/08 21:20:30;;;;;;;1999.90;999.90;;;5.20;99.90;;;;;;6248883;23;20020;-96
2021/03/08 21:22:58;;;;;;;1999.90;999.90;;;5.20;99.90;;;;;;6249056;23;20024;-96
2021/03/08 21:25:49;;;;;;;1999.90;999.90;;;5.20;99.90;;;;;;6248273;23;20439;-96
2021/03/08 21:28:17;;;;;;;1999.90;999.90;;;5.20;99.90;;;;;;6249327;23;20098;-95
2021/03/08 21:30:46;;;;;;;1999.90;999.90;;;5.20;99.90;;;;;;6249146;23;20024;-95
2021/03/08 21:33:14;;;;;;;1999.90;999.90;;;5.20;99.90;;;;;;6248733;23;20024;-96
2021/03/08 21:35:56;;;;;;;1999.90;999.90;;;5.10;99.90;;;;;;6248783;23;20040;-95
2021/03/08 21:41:52;;;;;;;1999.90;999.90;;;5.10;99.90;;;;;;6213220;23;20024;-96